createdAt,value
2023-04-11T00:01:27.415Z,1.20
2023-04-11T00:03:55.367Z,1.30
2023-04-11T00:06:23.285Z,1.30
2023-04-11T00:08:51.060Z,1.27
2023-04-11T00:11:21.040Z,1.47
2023-04-11T00:13:48.973Z,1.40
2023-04-11T00:16:16.931Z,1.50
2023-04-11T00:18:44.857Z,1.33
2023-04-11T00:21:12.800Z,1.30
2023-04-11T00:23:40.723Z,1.30
2023-04-11T00:26:09.005Z,1.40
2023-04-11T00:28:40.705Z,1.40
2023-04-11T00:31:08.819Z,1.63
2023-04-11T00:33:38.257Z,1.30
2023-04-11T00:36:07.941Z,1.30
2023-04-11T00:38:36.298Z,1.50
2023-04-11T00:41:04.890Z,2.20
2023-04-11T00:43:32.679Z,2.47
2023-04-11T00:46:02.551Z,2.57
2023-04-11T00:48:30.594Z,2.67
2023-04-11T00:50:58.628Z,3.37
2023-04-11T00:53:26.374Z,2.77
2023-04-11T00:55:54.437Z,2.30
2023-04-11T00:58:22.368Z,2.57
2023-04-11T01:00:51.613Z,3.13
2023-04-11T01:03:21.705Z,2.57
2023-04-11T01:05:53.888Z,2.53
2023-04-11T01:08:22.349Z,2.63
2023-04-11T01:10:51.165Z,2.80
2023-04-11T01:13:21.296Z,2.60
2023-04-11T01:15:49.098Z,2.93
2023-04-11T01:18:17.202Z,2.37
2023-04-11T01:20:46.364Z,2.73
2023-04-11T01:23:16.202Z,2.93
2023-04-11T01:25:45.506Z,3.20
2023-04-11T01:28:14.173Z,3.27
2023-04-11T01:30:42.070Z,3.40
2023-04-11T01:33:10.805Z,2.77
2023-04-11T01:35:39.196Z,3.00
2023-04-11T01:38:07.369Z,3.37
2023-04-11T01:40:35.869Z,3.63
2023-04-11T01:43:08.178Z,3.10
2023-04-11T01:45:36.644Z,3.10
2023-04-11T01:48:08.421Z,3.60
2023-04-11T01:50:36.380Z,3.33
2023-04-11T01:53:05.616Z,3.10
2023-04-11T01:55:33.577Z,3.67
2023-04-11T01:58:01.380Z,3.20
2023-04-11T02:00:32.427Z,3.90
2023-04-11T02:03:00.376Z,3.10
2023-04-11T02:05:28.189Z,3.43
2023-04-11T02:07:56.913Z,3.70
2023-04-11T02:10:24.753Z,3.63
2023-04-11T02:12:52.483Z,3.77
2023-04-11T02:15:20.605Z,3.43
2023-04-11T02:17:53.907Z,3.70
2023-04-11T02:20:23.330Z,3.20
2023-04-11T02:22:51.090Z,3.60
2023-04-11T02:25:18.988Z,3.27
2023-04-11T02:27:46.695Z,3.80
2023-04-11T02:30:14.540Z,3.03
2023-04-11T02:32:42.368Z,4.10
2023-04-11T02:35:11.888Z,3.67
2023-04-11T02:37:42.113Z,3.93
2023-04-11T02:40:10.931Z,3.37
2023-04-11T02:42:40.632Z,3.40
2023-04-11T02:45:09.807Z,4.10
2023-04-11T02:47:37.592Z,4.17
2023-04-11T02:50:09.121Z,3.47
2023-04-11T02:52:47.647Z,3.57
2023-04-11T02:55:16.468Z,4.13
2023-04-11T02:57:44.198Z,4.43
2023-04-11T03:00:15.160Z,4.10
2023-04-11T03:02:49.089Z,3.47
2023-04-11T03:05:21.101Z,4.27
2023-04-11T03:07:52.638Z,3.70
2023-04-11T03:10:20.933Z,4.37
2023-04-11T03:12:48.898Z,3.63
2023-04-11T03:15:17.641Z,4.10
2023-04-11T03:17:45.661Z,4.37
2023-04-11T03:20:19.866Z,4.60
2023-04-11T03:22:54.148Z,4.63
2023-04-11T03:25:22.574Z,4.17
2023-04-11T03:27:52.201Z,4.13
2023-04-11T03:30:20.014Z,4.43
2023-04-11T03:32:49.291Z,4.23
2023-04-11T03:35:20.489Z,4.43
2023-04-11T03:37:50.497Z,4.63
2023-04-11T03:40:20.825Z,4.60
2023-04-11T03:43:04.377Z,4.50
2023-04-11T03:45:34.735Z,4.43
2023-04-11T03:48:06.522Z,4.67
2023-04-11T03:50:52.390Z,4.57
2023-04-11T03:53:26.204Z,5.23
2023-04-11T03:55:59.167Z,4.90
2023-04-11T03:58:34.332Z,4.97
2023-04-11T04:01:02.675Z,4.50
2023-04-11T04:03:32.587Z,5.23
2023-04-11T04:06:01.433Z,5.80
2023-04-11T04:08:29.837Z,5.33
2023-04-11T04:10:59.222Z,5.10
2023-04-11T04:13:28.483Z,5.97
2023-04-11T04:16:07.014Z,5.27
2023-04-11T04:18:34.830Z,4.90
2023-04-11T04:21:03.014Z,4.57
2023-04-11T04:23:32.473Z,4.40
2023-04-11T04:26:24.909Z,5.67
2023-04-11T04:29:05.397Z,4.70
2023-04-11T04:31:50.568Z,4.60
2023-04-11T04:34:22.012Z,5.10
2023-04-11T04:36:56.431Z,4.83
2023-04-11T04:39:34.019Z,4.70
2023-04-11T04:42:04.368Z,4.63
2023-04-11T04:44:38.268Z,4.07
2023-04-11T04:47:14.118Z,4.27
2023-04-11T04:49:42.763Z,4.40
2023-04-11T04:52:10.564Z,4.17
2023-04-11T04:54:38.359Z,4.13
2023-04-11T04:57:07.836Z,3.80
2023-04-11T04:59:41.286Z,3.97
2023-04-11T05:02:13.556Z,4.70
2023-04-11T05:04:42.542Z,3.87
2023-04-11T05:07:13.884Z,3.33
2023-04-11T05:09:41.824Z,3.57
2023-04-11T05:12:27.107Z,3.87
2023-04-11T05:14:59.604Z,3.70
2023-04-11T05:17:31.249Z,4.10
2023-04-11T05:19:59.210Z,3.50
2023-04-11T05:22:28.332Z,3.80
2023-04-11T05:24:58.025Z,3.47
2023-04-11T05:27:27.410Z,4.03
2023-04-11T05:29:55.936Z,3.90
2023-04-11T05:32:23.811Z,3.70
2023-04-11T05:34:55.830Z,3.63
2023-04-11T05:37:32.734Z,3.80
2023-04-11T05:40:00.663Z,3.63
2023-04-11T05:42:29.928Z,4.23
2023-04-11T05:45:00.465Z,4.07
2023-04-11T05:47:29.095Z,3.57
2023-04-11T05:49:56.893Z,4.20
2023-04-11T05:52:24.752Z,4.00
2023-04-11T05:54:52.447Z,4.60
2023-04-11T05:57:20.957Z,4.37
2023-04-11T05:59:53.044Z,4.10
2023-04-11T06:02:21.579Z,4.20
2023-04-11T06:04:49.495Z,4.20
2023-04-11T06:07:17.344Z,4.93
2023-04-11T06:09:46.341Z,4.07
2023-04-11T06:12:14.138Z,3.43
2023-04-11T06:14:42.126Z,4.07
2023-04-11T06:17:11.403Z,4.07
2023-04-11T06:19:39.380Z,4.10
2023-04-11T06:22:07.069Z,3.40
2023-04-11T06:24:39.274Z,4.00
2023-04-11T06:27:09.989Z,3.47
2023-04-11T06:29:38.429Z,3.40
2023-04-11T06:32:07.189Z,3.80
2023-04-11T06:34:36.542Z,3.90
2023-04-11T06:37:04.285Z,4.00
2023-04-11T06:39:32.032Z,3.50
2023-04-11T06:41:59.854Z,3.20
2023-04-11T06:44:28.102Z,2.97
2023-04-11T06:46:56.742Z,3.27
2023-04-11T06:49:25.076Z,3.50
2023-04-11T06:51:54.750Z,3.07
2023-04-11T06:54:23.505Z,3.37
2023-04-11T06:56:51.621Z,3.03
2023-04-11T06:59:20.563Z,3.23
2023-04-11T07:01:49.720Z,3.17
2023-04-11T07:04:18.117Z,3.00
2023-04-11T07:06:46.341Z,2.80
2023-04-11T07:09:15.557Z,3.00
2023-04-11T07:11:43.322Z,3.30
2023-04-11T07:14:11.150Z,3.30
2023-04-11T07:16:38.985Z,3.43
2023-04-11T07:19:06.966Z,3.90
2023-04-11T07:21:34.831Z,3.47
2023-04-11T07:24:03.013Z,3.77
2023-04-11T07:26:33.009Z,3.80
2023-04-11T07:29:00.893Z,3.87
2023-04-11T07:31:28.721Z,3.83
2023-04-11T07:33:56.845Z,3.63
2023-04-11T07:36:24.842Z,3.40
2023-04-11T07:38:53.192Z,3.67
2023-04-11T07:41:20.997Z,3.03
2023-04-11T07:43:50.261Z,3.27
2023-04-11T07:46:18.071Z,2.93
2023-04-11T07:48:45.983Z,3.23
2023-04-11T07:51:13.888Z,3.20
2023-04-11T07:53:41.656Z,4.37
2023-04-11T07:56:10.383Z,3.53
2023-04-11T07:58:38.267Z,3.57
2023-04-11T08:01:09.398Z,3.20
2023-04-11T08:03:37.291Z,2.93
2023-04-11T08:06:05.619Z,2.60
2023-04-11T08:08:33.484Z,3.00
2023-04-11T08:11:01.370Z,3.00
2023-04-11T08:13:29.176Z,3.10
2023-04-11T08:15:56.944Z,3.07
2023-04-11T08:18:26.321Z,2.90
2023-04-11T08:20:54.214Z,2.60
2023-04-11T08:23:22.763Z,2.93
2023-04-11T08:25:50.799Z,2.87
2023-04-11T08:28:18.594Z,3.13
2023-04-11T08:30:46.383Z,3.00
2023-04-11T08:33:15.174Z,3.10
2023-04-11T08:35:44.409Z,2.53
2023-04-11T08:38:12.272Z,3.00
2023-04-11T08:40:40.005Z,2.97
2023-04-11T08:43:12.127Z,3.20
2023-04-11T08:45:40.972Z,3.00
2023-04-11T08:48:09.340Z,2.80
2023-04-11T08:50:37.281Z,3.13
2023-04-11T08:53:08.316Z,2.70
2023-04-11T08:55:37.353Z,2.50
2023-04-11T08:58:05.814Z,2.70
2023-04-11T09:00:33.808Z,2.50
2023-04-11T09:03:03.568Z,2.20
2023-04-11T09:05:33.617Z,2.83
2023-04-11T09:08:04.320Z,2.07
2023-04-11T09:10:33.915Z,2.10
2023-04-11T09:13:03.345Z,1.90
2023-04-11T09:15:32.772Z,2.57
2023-04-11T09:18:01.248Z,2.27
2023-04-11T09:20:31.159Z,3.13
2023-04-11T09:22:59.935Z,3.33
2023-04-11T09:25:28.622Z,2.90
2023-04-11T09:28:10.582Z,2.50
2023-04-11T09:30:38.605Z,2.67
2023-04-11T09:33:22.575Z,2.90
2023-04-11T09:35:52.199Z,2.83
2023-04-11T09:38:30.749Z,2.60
2023-04-11T09:40:59.881Z,2.57
2023-04-11T09:43:29.903Z,2.30
2023-04-11T09:46:10.654Z,2.10
2023-04-11T09:48:46.419Z,2.33
2023-04-11T09:51:36.412Z,2.33
2023-04-11T09:54:06.364Z,2.20
2023-04-11T09:56:35.369Z,2.40
2023-04-11T09:59:05.493Z,2.20
2023-04-11T10:01:33.675Z,2.10
2023-04-11T10:04:02.178Z,2.60
2023-04-11T10:06:34.115Z,2.67
2023-04-11T10:09:09.747Z,2.37
2023-04-11T10:11:38.583Z,2.73
2023-04-11T10:14:07.887Z,2.53
2023-04-11T10:16:36.225Z,2.43
2023-04-11T10:19:29.472Z,2.80
2023-04-11T10:21:57.705Z,2.60
2023-04-11T10:24:26.688Z,2.83
2023-04-11T10:26:56.219Z,2.23
2023-04-11T10:29:52.014Z,2.50
2023-04-11T10:32:22.531Z,2.67
2023-04-11T10:35:22.428Z,2.40
2023-04-11T10:37:50.498Z,2.60
2023-04-11T10:40:20.634Z,2.73
2023-04-11T10:42:49.253Z,2.00
2023-04-11T10:45:27.570Z,2.40
2023-04-11T10:48:07.935Z,3.13
2023-04-11T10:50:44.644Z,2.90
2023-04-11T10:53:37.464Z,2.40
2023-04-11T10:56:06.115Z,2.50
2023-04-11T10:58:39.774Z,2.50
2023-04-11T11:01:31.202Z,2.30
2023-04-11T11:04:06.908Z,2.20
2023-04-11T11:06:46.122Z,2.20
2023-04-11T11:09:23.174Z,2.53
2023-04-11T11:12:06.517Z,2.33
2023-04-11T11:14:34.565Z,2.87
2023-04-11T11:17:04.198Z,2.57
2023-04-11T11:19:32.606Z,2.53
2023-04-11T11:22:03.586Z,2.50
2023-04-11T11:24:32.505Z,2.93
2023-04-11T11:27:00.535Z,3.30
2023-04-11T11:29:32.743Z,3.40
2023-04-11T11:32:03.400Z,3.17
2023-04-11T11:34:34.300Z,3.80
2023-04-11T11:37:05.402Z,2.80
2023-04-11T11:39:34.556Z,3.10
2023-04-11T11:42:03.487Z,3.00
2023-04-11T11:44:32.926Z,2.50
2023-04-11T11:47:05.643Z,2.10
2023-04-11T11:49:49.552Z,2.07
2023-04-11T11:52:33.105Z,2.03
2023-04-11T11:55:01.551Z,2.20
2023-04-11T11:57:29.990Z,1.70
2023-04-11T11:59:58.680Z,1.50
2023-04-11T12:02:27.743Z,1.80
2023-04-11T12:05:00.543Z,1.70
2023-04-11T12:07:32.457Z,1.80
2023-04-11T12:10:01.238Z,1.47
2023-04-11T12:12:37.380Z,1.47
2023-04-11T12:15:11.975Z,1.07
2023-04-11T12:17:40.952Z,1.40
2023-04-11T12:20:11.873Z,1.37
2023-04-11T12:22:41.176Z,1.73
2023-04-11T12:25:11.026Z,1.60
2023-04-11T12:27:40.287Z,1.57
2023-04-11T12:30:09.319Z,1.50
2023-04-11T12:32:37.803Z,1.43
2023-04-11T12:35:07.575Z,1.40
2023-04-11T12:37:36.876Z,1.30
2023-04-11T12:40:10.692Z,0.90
2023-04-11T12:42:49.539Z,1.30
2023-04-11T12:45:24.468Z,1.23
2023-04-11T12:47:52.430Z,1.43
2023-04-11T12:50:23.028Z,1.20
2023-04-11T12:52:52.531Z,1.37
2023-04-11T12:55:21.534Z,1.50
2023-04-11T12:57:49.783Z,1.10
2023-04-11T13:00:18.756Z,1.30
2023-04-11T13:02:48.631Z,1.53
2023-04-11T13:05:17.441Z,1.43
2023-04-11T13:07:46.337Z,1.57
2023-04-11T13:10:16.833Z,1.77
2023-04-11T13:12:46.542Z,1.60
2023-04-11T13:15:16.168Z,4.37
2023-04-11T13:17:44.479Z,1.97
2023-04-11T13:20:13.649Z,1.10
2023-04-11T13:22:43.271Z,1.40
2023-04-11T13:25:12.025Z,1.13
2023-04-11T13:27:42.311Z,0.90
2023-04-11T13:30:11.445Z,1.47
2023-04-11T13:32:39.873Z,1.27
2023-04-11T13:35:08.969Z,1.30
2023-04-11T13:37:36.875Z,1.80
2023-04-11T13:40:08.394Z,1.67
2023-04-11T13:42:36.611Z,2.27
2023-04-11T13:45:06.878Z,2.37
2023-04-11T13:47:38.197Z,2.27
2023-04-11T13:50:08.542Z,1.60
2023-04-11T13:52:37.501Z,1.60
2023-04-11T13:55:06.514Z,2.40
2023-04-11T13:57:34.350Z,1.40
2023-04-11T14:00:05.008Z,1.10
2023-04-11T14:02:34.280Z,1.23
2023-04-11T14:05:02.304Z,1.53
2023-04-11T14:07:30.676Z,1.30
2023-04-11T14:09:58.797Z,1.53
2023-04-11T14:12:27.445Z,1.13
2023-04-11T14:14:55.317Z,1.53
2023-04-11T14:17:23.328Z,1.40
2023-04-11T14:19:52.834Z,1.20
2023-04-11T14:22:21.095Z,1.47
2023-04-11T14:24:48.968Z,1.60
2023-04-11T14:27:16.914Z,1.23
2023-04-11T14:29:44.791Z,1.10
2023-04-11T14:32:12.729Z,1.30
2023-04-11T14:34:40.939Z,1.43
2023-04-11T14:37:10.316Z,1.53
2023-04-11T14:39:39.925Z,1.80
2023-04-11T14:42:08.980Z,1.70
2023-04-11T14:44:39.522Z,1.47
2023-04-11T14:47:07.941Z,1.50
2023-04-11T14:49:36.100Z,1.33
2023-04-11T14:52:03.987Z,1.50
2023-04-11T14:54:33.400Z,1.67
2023-04-11T14:57:02.462Z,2.00
2023-04-11T14:59:30.871Z,1.60
2023-04-11T15:01:58.789Z,1.60
2023-04-11T15:04:26.828Z,1.57
2023-04-11T15:06:54.790Z,1.70
2023-04-11T15:09:22.670Z,1.87
2023-04-11T15:11:52.558Z,1.43
2023-04-11T15:14:20.958Z,1.83
2023-04-11T15:16:48.968Z,1.50
2023-04-11T15:19:17.179Z,1.70
2023-04-11T15:21:46.224Z,1.80
2023-04-11T15:24:14.458Z,1.77
2023-04-11T15:26:44.611Z,1.60
2023-04-11T15:29:16.645Z,1.53
2023-04-11T15:31:46.210Z,2.00
2023-04-11T15:34:14.995Z,1.70
2023-04-11T15:36:45.211Z,1.70
2023-04-11T15:39:13.387Z,1.77
2023-04-11T15:41:41.589Z,1.47
2023-04-11T15:44:09.989Z,1.60
2023-04-11T15:46:39.786Z,1.60
2023-04-11T15:49:07.949Z,2.13
2023-04-11T15:51:36.188Z,1.63
2023-04-11T15:54:04.954Z,1.80
2023-04-11T15:56:33.564Z,2.23
2023-04-11T15:59:01.649Z,1.87
2023-04-11T16:01:30.085Z,2.27
2023-04-11T16:03:59.726Z,1.37
2023-04-11T16:06:27.975Z,2.00
2023-04-11T16:08:56.163Z,1.70
2023-04-11T16:11:24.098Z,1.70
2023-04-11T16:13:52.277Z,1.80
2023-04-11T16:16:20.224Z,1.80
2023-04-11T16:18:48.305Z,1.60
2023-04-11T16:21:18.390Z,1.50
2023-04-11T16:23:46.611Z,1.70
2023-04-11T16:26:14.457Z,1.33
2023-04-11T16:28:42.397Z,1.50
2023-04-11T16:31:10.944Z,1.40
2023-04-11T16:33:39.211Z,1.60
2023-04-11T16:36:07.800Z,1.67
2023-04-11T16:38:37.191Z,3.17
2023-04-11T16:41:05.446Z,1.73
2023-04-11T16:43:33.560Z,1.70
2023-04-11T16:46:01.606Z,1.40
2023-04-11T16:48:30.964Z,1.90
2023-04-11T16:50:59.076Z,1.53
2023-04-11T16:53:27.037Z,1.20
2023-04-11T16:56:00.385Z,1.60
2023-04-11T16:58:28.550Z,1.80
2023-04-11T17:00:57.153Z,2.00
2023-04-11T17:03:25.468Z,1.60
2023-04-11T17:05:53.507Z,1.43
2023-04-11T17:08:21.576Z,1.73
2023-04-11T17:10:49.949Z,1.60
2023-04-11T17:13:19.645Z,1.43
2023-04-11T17:15:47.634Z,1.40
2023-04-11T17:18:16.397Z,1.47
2023-04-11T17:20:46.484Z,1.80
2023-04-11T17:23:14.426Z,1.70
2023-04-11T17:25:42.521Z,1.70
2023-04-11T17:28:10.810Z,1.73
2023-04-11T17:30:40.292Z,1.97
2023-04-11T17:33:09.704Z,1.70
2023-04-11T17:35:37.830Z,1.50
2023-04-11T17:38:05.752Z,2.00
2023-04-11T17:40:33.891Z,2.03
2023-04-11T17:43:02.084Z,1.67
2023-04-11T17:45:30.863Z,1.90
2023-04-11T17:48:01.399Z,1.70
2023-04-11T17:50:30.352Z,1.73
2023-04-11T17:52:59.378Z,2.13
2023-04-11T17:55:28.582Z,1.80
2023-04-11T17:57:57.900Z,1.77
2023-04-11T18:00:29.392Z,1.87
2023-04-11T18:02:59.200Z,1.60
2023-04-11T18:05:31.823Z,2.20
2023-04-11T18:08:02.689Z,1.57
2023-04-11T18:10:31.356Z,1.70
2023-04-11T18:12:59.832Z,1.80
2023-04-11T18:15:28.354Z,1.87
2023-04-11T18:17:56.355Z,1.77
2023-04-11T18:20:24.582Z,2.00
2023-04-11T18:22:56.328Z,1.63
2023-04-11T18:25:25.566Z,1.50
2023-04-11T18:27:53.524Z,1.53
2023-04-11T18:30:21.611Z,1.70
2023-04-11T18:32:51.728Z,1.57
2023-04-11T18:35:19.797Z,1.80
2023-04-11T18:37:47.979Z,2.60
2023-04-11T18:40:18.453Z,1.67
2023-04-11T18:42:48.872Z,1.60
2023-04-11T18:45:20.749Z,1.63
2023-04-11T18:47:49.273Z,1.60
2023-04-11T18:50:17.965Z,1.73
2023-04-11T18:56:02.859Z,2.33
2023-04-11T18:58:33.152Z,3.37
2023-04-11T19:01:14.840Z,3.20
2023-04-11T19:03:53.683Z,3.00
2023-04-11T19:06:21.942Z,4.30
2023-04-11T19:08:51.145Z,2.87
2023-04-11T19:11:20.682Z,2.40
2023-04-11T19:13:49.102Z,2.60
2023-04-11T19:16:20.472Z,2.20
2023-04-11T19:18:48.445Z,2.80
2023-04-11T19:21:16.792Z,2.70
2023-04-11T19:23:45.074Z,2.53
2023-04-11T19:26:13.374Z,2.97
2023-04-11T19:28:42.806Z,2.90
2023-04-11T19:31:10.744Z,3.40
2023-04-11T19:33:39.116Z,4.10
2023-04-11T19:36:07.661Z,4.60
2023-04-11T19:38:36.158Z,4.20
2023-04-11T19:41:12.655Z,3.63
2023-04-11T19:43:42.745Z,3.07
2023-04-11T19:46:12.166Z,2.67
2023-04-11T19:48:40.698Z,3.80
2023-04-11T19:51:11.042Z,3.50
2023-04-11T19:53:40.094Z,3.00
2023-04-11T19:56:10.072Z,2.40
2023-04-11T19:58:38.409Z,2.10
2023-04-11T20:01:08.339Z,1.93
2023-04-11T20:03:36.601Z,2.20
2023-04-11T20:06:05.954Z,2.30
2023-04-11T20:08:36.561Z,2.33
2023-04-11T20:11:05.679Z,2.00
2023-04-11T20:13:34.004Z,1.70
2023-04-11T20:16:04.679Z,1.93
2023-04-11T20:18:35.429Z,1.87
2023-04-11T20:21:06.177Z,2.00
2023-04-11T20:23:35.416Z,1.80
2023-04-11T20:26:03.531Z,2.43
2023-04-11T20:28:31.760Z,2.00
2023-04-11T20:30:59.983Z,2.10
2023-04-11T20:33:28.704Z,2.13
2023-04-11T20:35:58.693Z,2.10
2023-04-11T20:38:27.478Z,2.20
2023-04-11T20:40:55.750Z,2.40
2023-04-11T20:43:26.469Z,2.13
2023-04-11T20:45:56.047Z,2.33
2023-04-11T20:48:25.988Z,2.50
2023-04-11T20:50:58.015Z,2.00
2023-04-11T20:53:28.018Z,2.50
2023-04-11T20:55:56.202Z,2.30
2023-04-11T20:58:24.288Z,2.50
2023-04-11T21:00:52.341Z,2.10
2023-04-11T21:03:21.408Z,2.30
2023-04-11T21:05:50.390Z,2.80
2023-04-11T21:08:19.089Z,2.47
2023-04-11T21:10:48.762Z,2.37
2023-04-11T21:13:16.611Z,2.27
2023-04-11T21:15:44.428Z,2.50
2023-04-11T21:18:14.843Z,2.30
2023-04-11T21:20:42.778Z,2.37
2023-04-11T21:23:10.575Z,2.20
2023-04-11T21:25:38.799Z,2.60
2023-04-11T21:28:08.022Z,2.57
2023-04-11T21:30:35.997Z,2.77
2023-04-11T21:33:03.914Z,2.10
2023-04-11T21:35:31.768Z,2.23
2023-04-11T21:37:59.571Z,2.13
2023-04-11T21:40:30.631Z,2.37
2023-04-11T21:42:58.425Z,2.30
2023-04-11T21:45:28.624Z,2.27
2023-04-11T21:47:56.419Z,2.10
2023-04-11T21:50:31.823Z,2.37
2023-04-11T21:52:59.732Z,2.40
2023-04-11T21:55:27.559Z,2.20
2023-04-11T21:57:55.569Z,2.20
2023-04-11T22:03:20.634Z,2.23
2023-04-11T22:05:50.423Z,2.10
2023-04-11T22:08:20.116Z,2.73
2023-04-11T22:10:48.612Z,2.40
2023-04-11T22:13:18.700Z,2.47
2023-04-11T22:15:48.772Z,2.10
2023-04-11T22:18:17.214Z,2.20
2023-04-11T22:20:46.984Z,2.10
2023-04-11T22:23:17.744Z,2.40
2023-04-11T22:25:45.728Z,1.97
2023-04-11T22:28:18.283Z,1.83
2023-04-11T22:30:46.634Z,2.20
2023-04-11T22:33:15.388Z,2.13
2023-04-11T22:35:45.381Z,2.30
2023-04-11T22:38:15.741Z,2.43
2023-04-11T22:40:43.897Z,2.00
2023-04-11T22:43:12.366Z,2.00
2023-04-11T22:45:43.043Z,1.90
2023-04-11T22:48:13.859Z,2.17
2023-04-11T22:50:41.781Z,2.10
2023-04-11T22:53:14.016Z,2.07
2023-04-11T22:55:44.970Z,1.70
2023-04-11T22:58:15.525Z,2.03
2023-04-11T23:00:45.189Z,1.90
2023-04-11T23:03:16.175Z,1.97
2023-04-11T23:05:44.203Z,1.80
2023-04-11T23:08:12.283Z,2.13
2023-04-11T23:10:40.516Z,2.00
2023-04-11T23:13:09.874Z,1.90
2023-04-11T23:15:39.295Z,2.27
2023-04-11T23:18:09.655Z,2.13
2023-04-11T23:20:38.048Z,2.17
2023-04-11T23:23:06.574Z,1.90
2023-04-11T23:25:35.487Z,2.17
2023-04-11T23:28:03.516Z,2.00
2023-04-11T23:30:33.148Z,2.13
2023-04-11T23:33:01.744Z,1.87
2023-04-11T23:35:31.578Z,2.10
2023-04-11T23:37:59.893Z,1.83
2023-04-11T23:40:28.984Z,1.90
2023-04-11T23:42:58.012Z,2.10
2023-04-11T23:45:26.339Z,2.17
2023-04-11T23:47:56.184Z,2.00
2023-04-11T23:50:24.480Z,2.13
2023-04-11T23:52:53.724Z,2.20
2023-04-11T23:55:23.544Z,1.97
2023-04-11T23:57:51.570Z,2.23
